sensor_id;sensor_type;location;lat;lon;timestamp;pressure;altitude;pressure_sealevel;temperature;humidity
80382;BME280;69692;55.820;37.490;2023-10-08T00:00:49;96466.31;;;6.74;75.82
80382;BME280;69692;55.820;37.490;2023-10-08T00:03:16;96460.97;;;6.74;76.04
80382;BME280;69692;55.820;37.490;2023-10-08T00:05:43;96458.31;;;6.74;75.55
80382;BME280;69692;55.820;37.490;2023-10-08T00:08:09;96456.72;;;6.73;75.46
80382;BME280;69692;55.820;37.490;2023-10-08T00:10:36;96448.41;;;6.74;74.47
80382;BME280;69692;55.820;37.490;2023-10-08T00:13:04;96466.31;;;6.74;75.07
80382;BME280;69692;55.820;37.490;2023-10-08T00:15:34;96452.38;;;6.77;75.15
80382;BME280;69692;55.820;37.490;2023-10-08T00:18:05;96463.13;;;6.72;74.50
80382;BME280;69692;55.820;37.490;2023-10-08T00:20:37;96448.28;;;6.61;74.46
80382;BME280;69692;55.820;37.490;2023-10-08T00:23:22;96463.84;;;6.53;75.07
80382;BME280;69692;55.820;37.490;2023-10-08T00:25:52;96456.88;;;6.57;74.59
80382;BME280;69692;55.820;37.490;2023-10-08T00:28:18;96457.09;;;6.61;75.12
80382;BME280;69692;55.820;37.490;2023-10-08T00:30:44;96455.44;;;6.65;74.23
80382;BME280;69692;55.820;37.490;2023-10-08T00:33:10;96461.28;;;6.67;73.56
80382;BME280;69692;55.820;37.490;2023-10-08T00:35:41;96461.88;;;6.64;73.47
80382;BME280;69692;55.820;37.490;2023-10-08T00:38:08;96466.47;;;6.58;72.44
80382;BME280;69692;55.820;37.490;2023-10-08T00:40:41;96469.94;;;6.59;72.40
80382;BME280;69692;55.820;37.490;2023-10-08T00:43:34;96457.88;;;6.62;71.99
80382;BME280;69692;55.820;37.490;2023-10-08T00:46:04;96451.47;;;6.63;71.91
80382;BME280;69692;55.820;37.490;2023-10-08T00:48:35;96454.50;;;6.56;70.54
80382;BME280;69692;55.820;37.490;2023-10-08T00:51:05;96456.06;;;6.57;70.10
80382;BME280;69692;55.820;37.490;2023-10-08T00:54:02;96465.44;;;6.54;70.32
80382;BME280;69692;55.820;37.490;2023-10-08T00:56:34;96462.22;;;6.57;69.71
80382;BME280;69692;55.820;37.490;2023-10-08T00:59:26;96459.06;;;6.50;69.98
80382;BME280;69692;55.820;37.490;2023-10-08T01:01:52;96460.38;;;6.53;70.24
80382;BME280;69692;55.820;37.490;2023-10-08T01:04:25;96449.75;;;6.48;70.29
80382;BME280;69692;55.820;37.490;2023-10-08T01:07:04;96463.31;;;6.51;70.38
80382;BME280;69692;55.820;37.490;2023-10-08T01:09:42;96450.78;;;6.52;69.63
80382;BME280;69692;55.820;37.490;2023-10-08T01:12:21;96453.22;;;6.48;69.80
80382;BME280;69692;55.820;37.490;2023-10-08T01:15:01;96459.56;;;6.52;70.04
80382;BME280;69692;55.820;37.490;2023-10-08T01:17:42;96446.34;;;6.42;69.07
80382;BME280;69692;55.820;37.490;2023-10-08T01:20:22;96453.56;;;6.42;69.83
80382;BME280;69692;55.820;37.490;2023-10-08T01:23:10;96460.53;;;6.38;70.62
80382;BME280;69692;55.820;37.490;2023-10-08T01:25:40;96457.03;;;6.42;70.15
80382;BME280;69692;55.820;37.490;2023-10-08T01:28:09;96466.38;;;6.40;70.81
80382;BME280;69692;55.820;37.490;2023-10-08T01:30:43;96457.03;;;6.42;70.63
80382;BME280;69692;55.820;37.490;2023-10-08T01:33:14;96458.66;;;6.38;70.15
80382;BME280;69692;55.820;37.490;2023-10-08T01:35:43;96470.13;;;6.39;69.76
80382;BME280;69692;55.820;37.490;2023-10-08T01:38:09;96477.97;;;6.30;68.98
80382;BME280;69692;55.820;37.490;2023-10-08T01:40:41;96471.81;;;6.30;69.41
80382;BME280;69692;55.820;37.490;2023-10-08T01:43:07;96450.09;;;6.12;69.68
80382;BME280;69692;55.820;37.490;2023-10-08T01:45:36;96443.91;;;6.17;70.40
80382;BME280;69692;55.820;37.490;2023-10-08T01:48:07;96466.34;;;6.16;69.94
80382;BME280;69692;55.820;37.490;2023-10-08T01:50:37;96466.94;;;6.08;70.55
80382;BME280;69692;55.820;37.490;2023-10-08T01:53:04;96472.53;;;6.11;70.81
80382;BME280;69692;55.820;37.490;2023-10-08T01:55:36;96466.66;;;6.09;71.63
80382;BME280;69692;55.820;37.490;2023-10-08T01:58:13;96459.25;;;6.01;72.45
80382;BME280;69692;55.820;37.490;2023-10-08T02:00:42;96471.59;;;5.87;73.75
80382;BME280;69692;55.820;37.490;2023-10-08T02:03:14;96466.03;;;5.83;74.24
80382;BME280;69692;55.820;37.490;2023-10-08T02:05:45;96471.09;;;5.80;74.43
80382;BME280;69692;55.820;37.490;2023-10-08T02:08:12;96480.47;;;5.77;75.92
80382;BME280;69692;55.820;37.490;2023-10-08T02:10:40;96473.78;;;5.80;75.96
80382;BME280;69692;55.820;37.490;2023-10-08T02:13:08;96472.50;;;5.72;75.94
80382;BME280;69692;55.820;37.490;2023-10-08T02:15:43;96467.44;;;5.71;75.89
80382;BME280;69692;55.820;37.490;2023-10-08T02:18:09;96472.09;;;5.55;76.45
80382;BME280;69692;55.820;37.490;2023-10-08T02:20:36;96456.31;;;5.58;75.43
80382;BME280;69692;55.820;37.490;2023-10-08T02:23:01;96463.78;;;5.61;75.78
80382;BME280;69692;55.820;37.490;2023-10-08T02:25:27;96476.28;;;5.66;75.67
80382;BME280;69692;55.820;37.490;2023-10-08T02:27:53;96473.88;;;5.69;75.40
80382;BME280;69692;55.820;37.490;2023-10-08T02:30:19;96467.22;;;5.67;74.20
80382;BME280;69692;55.820;37.490;2023-10-08T02:32:45;96467.19;;;5.72;74.82
80382;BME280;69692;55.820;37.490;2023-10-08T02:35:12;96454.63;;;5.73;73.94
80382;BME280;69692;55.820;37.490;2023-10-08T02:37:40;96463.72;;;5.72;73.67
80382;BME280;69692;55.820;37.490;2023-10-08T02:40:07;96474.38;;;5.72;73.60
80382;BME280;69692;55.820;37.490;2023-10-08T02:42:52;96493.34;;;5.65;73.67
80382;BME280;69692;55.820;37.490;2023-10-08T02:45:29;96474.66;;;5.70;73.86
80382;BME280;69692;55.820;37.490;2023-10-08T02:47:56;96464.28;;;5.63;74.22
80382;BME280;69692;55.820;37.490;2023-10-08T02:50:23;96461.91;;;5.62;73.15
80382;BME280;69692;55.820;37.490;2023-10-08T02:52:49;96472.56;;;5.62;73.37
80382;BME280;69692;55.820;37.490;2023-10-08T02:55:18;96463.28;;;5.54;74.10
80382;BME280;69692;55.820;37.490;2023-10-08T02:57:55;96464.59;;;5.57;73.76
80382;BME280;69692;55.820;37.490;2023-10-08T03:00:22;96456.09;;;5.55;73.70
80382;BME280;69692;55.820;37.490;2023-10-08T03:02:57;96467.03;;;5.53;74.97
80382;BME280;69692;55.820;37.490;2023-10-08T03:05:23;96469.94;;;5.57;74.51
80382;BME280;69692;55.820;37.490;2023-10-08T03:07:55;96467.84;;;5.54;74.85
80382;BME280;69692;55.820;37.490;2023-10-08T03:10:24;96461.19;;;5.51;74.98
80382;BME280;69692;55.820;37.490;2023-10-08T03:12:58;96470.97;;;5.61;74.72
80382;BME280;69692;55.820;37.490;2023-10-08T03:15:30;96457.91;;;5.59;74.45
80382;BME280;69692;55.820;37.490;2023-10-08T03:18:04;96469.34;;;5.65;74.91
80382;BME280;69692;55.820;37.490;2023-10-08T03:20:41;96465.88;;;5.64;74.68
80382;BME280;69692;55.820;37.490;2023-10-08T03:23:13;96465.38;;;5.62;74.45
80382;BME280;69692;55.820;37.490;2023-10-08T03:25:52;96460.81;;;5.68;75.35
80382;BME280;69692;55.820;37.490;2023-10-08T03:28:24;96461.09;;;5.61;74.00
80382;BME280;69692;55.820;37.490;2023-10-08T03:30:52;96458.75;;;5.55;75.09
80382;BME280;69692;55.820;37.490;2023-10-08T03:33:30;96441.19;;;5.49;74.66
80382;BME280;69692;55.820;37.490;2023-10-08T03:36:01;96444.63;;;5.54;75.05
80382;BME280;69692;55.820;37.490;2023-10-08T03:38:35;96459.50;;;5.60;74.41
80382;BME280;69692;55.820;37.490;2023-10-08T03:41:25;96451.84;;;5.49;74.04
80382;BME280;69692;55.820;37.490;2023-10-08T03:43:56;96451.84;;;5.54;74.68
80382;BME280;69692;55.820;37.490;2023-10-08T03:46:33;96453.97;;;5.52;73.69
80382;BME280;69692;55.820;37.490;2023-10-08T03:49:13;96457.19;;;5.49;75.27
80382;BME280;69692;55.820;37.490;2023-10-08T03:51:49;96456.38;;;5.48;74.79
80382;BME280;69692;55.820;37.490;2023-10-08T03:54:19;96458.84;;;5.39;74.66
80382;BME280;69692;55.820;37.490;2023-10-08T03:56:53;96466.84;;;5.34;75.39
80382;BME280;69692;55.820;37.490;2023-10-08T03:59:18;96453.81;;;5.33;74.76
80382;BME280;69692;55.820;37.490;2023-10-08T04:01:53;96467.13;;;5.33;75.42
80382;BME280;69692;55.820;37.490;2023-10-08T04:04:21;96462.94;;;5.22;75.59
80382;BME280;69692;55.820;37.490;2023-10-08T04:06:56;96471.97;;;5.26;76.01
80382;BME280;69692;55.820;37.490;2023-10-08T04:09:41;96461.84;;;5.28;75.92
80382;BME280;69692;55.820;37.490;2023-10-08T04:12:08;96467.94;;;5.33;76.10
80382;BME280;69692;55.820;37.490;2023-10-08T04:14:36;96466.91;;;5.29;75.73
80382;BME280;69692;55.820;37.490;2023-10-08T04:17:02;96466.94;;;5.24;76.44
80382;BME280;69692;55.820;37.490;2023-10-08T04:19:29;96466.41;;;5.17;76.63
80382;BME280;69692;55.820;37.490;2023-10-08T04:21:56;96469.13;;;5.12;77.08
80382;BME280;69692;55.820;37.490;2023-10-08T04:24:24;96470.97;;;5.12;77.20
80382;BME280;69692;55.820;37.490;2023-10-08T04:27:00;96459.59;;;4.96;77.84
80382;BME280;69692;55.820;37.490;2023-10-08T04:29:31;96467.03;;;4.99;78.56
80382;BME280;69692;55.820;37.490;2023-10-08T04:31:59;96470.81;;;4.93;78.10
80382;BME280;69692;55.820;37.490;2023-10-08T04:34:36;96459.06;;;4.89;77.85
80382;BME280;69692;55.820;37.490;2023-10-08T04:37:02;96470.81;;;4.83;78.01
80382;BME280;69692;55.820;37.490;2023-10-08T04:39:36;96463.31;;;4.90;78.72
80382;BME280;69692;55.820;37.490;2023-10-08T04:42:05;96462.53;;;4.89;78.66
80382;BME280;69692;55.820;37.490;2023-10-08T04:44:38;96466.47;;;5.02;78.34
80382;BME280;69692;55.820;37.490;2023-10-08T04:47:06;96476.91;;;4.98;77.90
80382;BME280;69692;55.820;37.490;2023-10-08T04:49:33;96482.47;;;5.07;77.38
80382;BME280;69692;55.820;37.490;2023-10-08T04:52:02;96466.00;;;4.95;77.46
80382;BME280;69692;55.820;37.490;2023-10-08T04:54:40;96480.91;;;4.91;77.10
80382;BME280;69692;55.820;37.490;2023-10-08T04:57:07;96464.91;;;4.91;76.58
80382;BME280;69692;55.820;37.490;2023-10-08T04:59:44;96466.28;;;4.93;77.24
80382;BME280;69692;55.820;37.490;2023-10-08T05:02:12;96477.69;;;4.99;77.38
80382;BME280;69692;55.820;37.490;2023-10-08T05:04:41;96483.78;;;5.04;76.68
80382;BME280;69692;55.820;37.490;2023-10-08T05:07:25;96486.19;;;5.01;76.96
80382;BME280;69692;55.820;37.490;2023-10-08T05:10:10;96495.78;;;5.02;77.21
80382;BME280;69692;55.820;37.490;2023-10-08T05:12:47;96505.69;;;4.96;77.12
80382;BME280;69692;55.820;37.490;2023-10-08T05:15:27;96484.38;;;4.86;77.90
80382;BME280;69692;55.820;37.490;2023-10-08T05:18:18;96484.66;;;4.85;77.87
80382;BME280;69692;55.820;37.490;2023-10-08T05:20:44;96495.88;;;4.71;78.43
80382;BME280;69692;55.820;37.490;2023-10-08T05:23:12;96494.84;;;4.67;78.47
80382;BME280;69692;55.820;37.490;2023-10-08T05:25:52;96484.69;;;4.74;78.40
80382;BME280;69692;55.820;37.490;2023-10-08T05:28:36;96491.59;;;4.86;78.58
80382;BME280;69692;55.820;37.490;2023-10-08T05:31:14;96495.56;;;4.88;77.96
80382;BME280;69692;55.820;37.490;2023-10-08T05:33:41;96482.53;;;4.92;76.45
80382;BME280;69692;55.820;37.490;2023-10-08T05:36:41;96481.69;;;4.96;74.38
80382;BME280;69692;55.820;37.490;2023-10-08T05:39:37;96490.47;;;5.02;74.81
80382;BME280;69692;55.820;37.490;2023-10-08T05:42:08;96494.72;;;5.08;74.79
80382;BME280;69692;55.820;37.490;2023-10-08T05:44:46;96487.53;;;5.08;73.83
80382;BME280;69692;55.820;37.490;2023-10-08T05:47:31;96486.72;;;5.08;73.53
80382;BME280;69692;55.820;37.490;2023-10-08T05:49:57;96486.97;;;5.12;72.81
80382;BME280;69692;55.820;37.490;2023-10-08T05:52:43;96482.94;;;5.19;73.05
80382;BME280;69692;55.820;37.490;2023-10-08T05:55:25;96477.38;;;5.11;71.15
80382;BME280;69692;55.820;37.490;2023-10-08T05:57:53;96496.03;;;5.11;72.41
80382;BME280;69692;55.820;37.490;2023-10-08T06:00:43;96501.09;;;5.12;70.97
80382;BME280;69692;55.820;37.490;2023-10-08T06:03:26;96497.59;;;5.22;71.89
80382;BME280;69692;55.820;37.490;2023-10-08T06:06:04;96500.25;;;5.17;71.72
80382;BME280;69692;55.820;37.490;2023-10-08T06:08:38;96505.84;;;5.20;71.48
80382;BME280;69692;55.820;37.490;2023-10-08T06:11:16;96506.91;;;5.19;71.66
80382;BME280;69692;55.820;37.490;2023-10-08T06:14:17;96487.19;;;5.20;71.00
80382;BME280;69692;55.820;37.490;2023-10-08T06:16:54;96505.59;;;5.17;71.22
80382;BME280;69692;55.820;37.490;2023-10-08T06:19:39;96495.22;;;5.15;70.94
80382;BME280;69692;55.820;37.490;2023-10-08T06:22:05;96497.84;;;5.20;72.54
80382;BME280;69692;55.820;37.490;2023-10-08T06:24:31;96500.25;;;5.17;71.21
80382;BME280;69692;55.820;37.490;2023-10-08T06:26:58;96498.69;;;5.11;71.26
80382;BME280;69692;55.820;37.490;2023-10-08T06:29:31;96519.47;;;5.14;71.92
80382;BME280;69692;55.820;37.490;2023-10-08T06:31:58;96518.13;;;5.16;72.18
80382;BME280;69692;55.820;37.490;2023-10-08T06:34:28;96518.41;;;5.09;72.55
80382;BME280;69692;55.820;37.490;2023-10-08T06:36:57;96504.03;;;5.11;72.41
80382;BME280;69692;55.820;37.490;2023-10-08T06:39:24;96528.78;;;5.21;72.61
80382;BME280;69692;55.820;37.490;2023-10-08T06:42:13;96506.16;;;5.14;71.35
80382;BME280;69692;55.820;37.490;2023-10-08T06:44:41;96520.22;;;5.19;72.33
80382;BME280;69692;55.820;37.490;2023-10-08T06:47:12;96531.19;;;5.13;72.13
80382;BME280;69692;55.820;37.490;2023-10-08T06:49:42;96516.00;;;5.13;71.70
80382;BME280;69692;55.820;37.490;2023-10-08T06:52:09;96519.72;;;5.22;71.61
80382;BME280;69692;55.820;37.490;2023-10-08T06:54:38;96533.25;;;5.36;71.28
80382;BME280;69692;55.820;37.490;2023-10-08T06:57:04;96511.41;;;5.29;71.08
80382;BME280;69692;55.820;37.490;2023-10-08T06:59:31;96526.09;;;5.26;70.83
80382;BME280;69692;55.820;37.490;2023-10-08T07:01:57;96523.44;;;5.21;70.89
80382;BME280;69692;55.820;37.490;2023-10-08T07:04:24;96528.28;;;5.09;71.86
80382;BME280;69692;55.820;37.490;2023-10-08T07:06:50;96543.69;;;5.17;71.97
80382;BME280;69692;55.820;37.490;2023-10-08T07:09:16;96523.19;;;7.03;75.32
80382;BME280;69692;55.820;37.490;2023-10-08T07:11:56;96551.91;;;6.64;66.83
80382;BME280;69692;55.820;37.490;2023-10-08T07:14:27;96534.78;;;6.02;67.32
80382;BME280;69692;55.820;37.490;2023-10-08T07:16:57;96545.91;;;5.59;69.55
80382;BME280;69692;55.820;37.490;2023-10-08T07:19:26;96531.91;;;5.38;70.20
80382;BME280;69692;55.820;37.490;2023-10-08T07:22:00;96544.78;;;5.11;70.99
80382;BME280;69692;55.820;37.490;2023-10-08T07:24:29;96538.44;;;4.97;70.65
80382;BME280;69692;55.820;37.490;2023-10-08T07:26:56;96551.25;;;4.95;71.19
80382;BME280;69692;55.820;37.490;2023-10-08T07:29:22;96550.19;;;4.86;71.07
80382;BME280;69692;55.820;37.490;2023-10-08T07:31:50;96542.47;;;4.79;71.06
80382;BME280;69692;55.820;37.490;2023-10-08T07:34:19;96532.59;;;4.85;70.61
80382;BME280;69692;55.820;37.490;2023-10-08T07:36:54;96540.31;;;4.96;70.20
80382;BME280;69692;55.820;37.490;2023-10-08T07:39:22;96535.22;;;5.00;70.06
80382;BME280;69692;55.820;37.490;2023-10-08T07:41:53;96550.91;;;5.12;70.21
80382;BME280;69692;55.820;37.490;2023-10-08T07:44:23;96555.44;;;5.16;68.85
80382;BME280;69692;55.820;37.490;2023-10-08T07:46:50;96538.97;;;4.99;69.39
80382;BME280;69692;55.820;37.490;2023-10-08T07:49:17;96549.63;;;4.89;69.21
80382;BME280;69692;55.820;37.490;2023-10-08T07:51:44;96552.03;;;4.90;69.95
80382;BME280;69692;55.820;37.490;2023-10-08T07:54:23;96545.38;;;4.93;69.80
80382;BME280;69692;55.820;37.490;2023-10-08T07:56:58;96580.03;;;4.77;70.55
80382;BME280;69692;55.820;37.490;2023-10-08T07:59:38;96556.59;;;4.74;70.45
80382;BME280;69692;55.820;37.490;2023-10-08T08:02:08;96563.53;;;4.65;70.91
80382;BME280;69692;55.820;37.490;2023-10-08T08:04:38;96566.97;;;4.76;71.41
80382;BME280;69692;55.820;37.490;2023-10-08T08:07:08;96573.38;;;4.80;71.74
80382;BME280;69692;55.820;37.490;2023-10-08T08:09:46;96570.72;;;4.80;70.51
80382;BME280;69692;55.820;37.490;2023-10-08T08:12:18;96580.28;;;4.86;70.34
80382;BME280;69692;55.820;37.490;2023-10-08T08:14:45;96577.25;;;5.88;83.00
80382;BME280;69692;55.820;37.490;2023-10-08T08:17:11;96572.53;;;7.11;79.50
80382;BME280;69692;55.820;37.490;2023-10-08T08:19:42;96568.81;;;6.83;66.99
80382;BME280;69692;55.820;37.490;2023-10-08T08:22:10;96563.44;;;6.54;64.19
80382;BME280;69692;55.820;37.490;2023-10-08T08:24:59;96568.72;;;5.96;63.17
80382;BME280;69692;55.820;37.490;2023-10-08T08:27:31;96566.50;;;5.54;65.34
80382;BME280;69692;55.820;37.490;2023-10-08T08:30:01;96565.41;;;5.50;65.89
80382;BME280;69692;55.820;37.490;2023-10-08T08:32:39;96590.00;;;5.42;66.12
80382;BME280;69692;55.820;37.490;2023-10-08T08:35:09;96595.06;;;5.43;65.35
80382;BME280;69692;55.820;37.490;2023-10-08T08:37:36;96600.41;;;5.38;66.19
80382;BME280;69692;55.820;37.490;2023-10-08T08:40:05;96602.81;;;5.39;65.61
80382;BME280;69692;55.820;37.490;2023-10-08T08:42:35;96591.66;;;5.27;66.41
80382;BME280;69692;55.820;37.490;2023-10-08T08:45:06;96599.66;;;5.17;67.78
80382;BME280;69692;55.820;37.490;2023-10-08T08:47:35;96609.28;;;5.13;67.15
80382;BME280;69692;55.820;37.490;2023-10-08T08:50:04;96608.47;;;5.13;67.82
80382;BME280;69692;55.820;37.490;2023-10-08T08:52:36;96608.25;;;4.94;68.46
80382;BME280;69692;55.820;37.490;2023-10-08T08:55:06;96599.22;;;4.69;68.88
80382;BME280;69692;55.820;37.490;2023-10-08T08:57:42;96609.34;;;4.62;69.45
80382;BME280;69692;55.820;37.490;2023-10-08T09:00:13;96617.56;;;4.61;69.66
80382;BME280;69692;55.820;37.490;2023-10-08T09:02:40;96614.41;;;4.64;69.52
80382;BME280;69692;55.820;37.490;2023-10-08T09:05:07;96629.28;;;4.75;70.05
80382;BME280;69692;55.820;37.490;2023-10-08T09:08:04;96610.13;;;4.78;69.71
80382;BME280;69692;55.820;37.490;2023-10-08T09:10:33;96621.47;;;5.39;71.51
80382;BME280;69692;55.820;37.490;2023-10-08T09:13:19;96621.13;;;5.61;68.59
80382;BME280;69692;55.820;37.490;2023-10-08T09:15:47;96624.13;;;5.34;69.51
80382;BME280;69692;55.820;37.490;2023-10-08T09:18:14;96630.81;;;5.27;69.91
80382;BME280;69692;55.820;37.490;2023-10-08T09:20:40;96639.91;;;5.16;69.81
80382;BME280;69692;55.820;37.490;2023-10-08T09:23:14;96631.44;;;4.93;70.29
80382;BME280;69692;55.820;37.490;2023-10-08T09:25:44;96634.34;;;4.71;70.52
80382;BME280;69692;55.820;37.490;2023-10-08T09:28:11;96639.16;;;4.74;70.86
80382;BME280;69692;55.820;37.490;2023-10-08T09:30:40;96634.34;;;5.07;70.86
80382;BME280;69692;55.820;37.490;2023-10-08T09:33:11;96626.06;;;5.14;68.95
80382;BME280;69692;55.820;37.490;2023-10-08T09:35:42;96630.06;;;5.11;67.49
80382;BME280;69692;55.820;37.490;2023-10-08T09:38:09;96625.00;;;5.09;67.45
80382;BME280;69692;55.820;37.490;2023-10-08T09:40:41;96630.34;;;4.94;67.57
80382;BME280;69692;55.820;37.490;2023-10-08T09:43:10;96633.81;;;5.10;68.02
80382;BME280;69692;55.820;37.490;2023-10-08T09:45:38;96639.66;;;5.12;67.77
80382;BME280;69692;55.820;37.490;2023-10-08T09:48:06;96638.06;;;5.21;67.87
80382;BME280;69692;55.820;37.490;2023-10-08T09:50:39;96649.78;;;5.15;67.46
80382;BME280;69692;55.820;37.490;2023-10-08T09:53:11;96642.06;;;5.03;65.87
80382;BME280;69692;55.820;37.490;2023-10-08T09:55:48;96635.97;;;4.93;67.29
80382;BME280;69692;55.820;37.490;2023-10-08T09:58:15;96636.50;;;4.95;66.74
80382;BME280;69692;55.820;37.490;2023-10-08T10:00:42;96646.06;;;5.06;67.34
80382;BME280;69692;55.820;37.490;2023-10-08T10:03:10;96633.78;;;5.15;67.57
80382;BME280;69692;55.820;37.490;2023-10-08T10:05:38;96638.56;;;5.18;67.72
80382;BME280;69692;55.820;37.490;2023-10-08T10:08:04;96641.53;;;5.12;67.12
80382;BME280;69692;55.820;37.490;2023-10-08T10:10:36;96622.91;;;4.96;67.57
80382;BME280;69692;55.820;37.490;2023-10-08T10:13:12;96651.38;;;4.91;68.39
80382;BME280;69692;55.820;37.490;2023-10-08T10:15:38;96639.94;;;4.95;68.45
80382;BME280;69692;55.820;37.490;2023-10-08T10:18:28;96641.81;;;4.85;68.46
80382;BME280;69692;55.820;37.490;2023-10-08T10:20:58;96646.88;;;4.86;69.42
80382;BME280;69692;55.820;37.490;2023-10-08T10:23:40;96655.38;;;4.88;68.48
80382;BME280;69692;55.820;37.490;2023-10-08T10:26:27;96655.94;;;4.70;68.55
80382;BME280;69692;55.820;37.490;2023-10-08T10:31:49;96664.72;;;4.50;70.47
80382;BME280;69692;55.820;37.490;2023-10-08T10:34:26;96682.25;;;4.41;71.83
80382;BME280;69692;55.820;37.490;2023-10-08T10:36:58;96680.94;;;4.33;71.84
80382;BME280;69692;55.820;37.490;2023-10-08T10:39:42;96674.25;;;4.21;72.96
80382;BME280;69692;55.820;37.490;2023-10-08T10:42:11;96666.50;;;4.09;74.60
80382;BME280;69692;55.820;37.490;2023-10-08T10:44:47;96693.34;;;4.07;75.03
80382;BME280;69692;55.820;37.490;2023-10-08T10:47:17;96693.34;;;4.07;76.33
80382;BME280;69692;55.820;37.490;2023-10-08T10:49:45;96689.91;;;4.02;76.34
80382;BME280;69692;55.820;37.490;2023-10-08T10:52:20;96696.28;;;4.06;77.29
80382;BME280;69692;55.820;37.490;2023-10-08T10:55:03;96686.66;;;4.00;77.24
80382;BME280;69692;55.820;37.490;2023-10-08T10:57:54;96700.75;;;4.00;77.30
80382;BME280;69692;55.820;37.490;2023-10-08T11:00:31;96698.56;;;3.82;77.22
80382;BME280;69692;55.820;37.490;2023-10-08T11:03:02;96689.25;;;3.74;78.46
80382;BME280;69692;55.820;37.490;2023-10-08T11:05:36;96690.81;;;3.70;80.09
80382;BME280;69692;55.820;37.490;2023-10-08T11:08:05;96692.16;;;3.73;79.21
80382;BME280;69692;55.820;37.490;2023-10-08T11:10:36;96695.84;;;3.62;80.62
80382;BME280;69692;55.820;37.490;2023-10-08T11:13:19;96699.31;;;3.67;80.63
80382;BME280;69692;55.820;37.490;2023-10-08T11:15:48;96691.13;;;3.74;81.69
80382;BME280;69692;55.820;37.490;2023-10-08T11:18:20;96700.19;;;3.83;81.18
80382;BME280;69692;55.820;37.490;2023-10-08T11:20:48;96701.50;;;3.85;79.86
80382;BME280;69692;55.820;37.490;2023-10-08T11:23:36;96687.47;;;3.95;81.17
80382;BME280;69692;55.820;37.490;2023-10-08T11:26:04;96698.34;;;3.88;81.79
80382;BME280;69692;55.820;37.490;2023-10-08T11:28:31;96699.44;;;3.98;80.65
80382;BME280;69692;55.820;37.490;2023-10-08T11:31:04;96704.78;;;4.03;81.34
80382;BME280;69692;55.820;37.490;2023-10-08T11:33:38;96694.38;;;4.01;79.74
80382;BME280;69692;55.820;37.490;2023-10-08T11:36:05;96704.97;;;3.86;80.88
80382;BME280;69692;55.820;37.490;2023-10-08T11:38:47;96697.84;;;3.97;82.00
80382;BME280;69692;55.820;37.490;2023-10-08T11:41:19;96698.38;;;3.99;80.56
80382;BME280;69692;55.820;37.490;2023-10-08T11:43:52;96698.09;;;4.00;81.36
80382;BME280;69692;55.820;37.490;2023-10-08T11:46:31;96697.59;;;4.03;80.11
80382;BME280;69692;55.820;37.490;2023-10-08T11:49:08;96697.03;;;3.96;81.54
80382;BME280;69692;55.820;37.490;2023-10-08T11:51:44;96695.97;;;3.97;80.84
80382;BME280;69692;55.820;37.490;2023-10-08T11:54:14;96707.41;;;3.93;80.57
80382;BME280;69692;55.820;37.490;2023-10-08T11:56:40;96706.56;;;3.82;81.02
80382;BME280;69692;55.820;37.490;2023-10-08T11:59:07;96706.59;;;3.87;81.97
80382;BME280;69692;55.820;37.490;2023-10-08T12:01:36;96695.69;;;3.88;81.16
80382;BME280;69692;55.820;37.490;2023-10-08T12:04:04;96702.06;;;3.87;81.98
80382;BME280;69692;55.820;37.490;2023-10-08T12:06:30;96707.69;;;3.96;82.22
80382;BME280;69692;55.820;37.490;2023-10-08T12:08:57;96695.44;;;3.90;80.93
80382;BME280;69692;55.820;37.490;2023-10-08T12:11:25;96695.44;;;3.90;81.62
80382;BME280;69692;55.820;37.490;2023-10-08T12:13:58;96699.41;;;3.87;82.72
80382;BME280;69692;55.820;37.490;2023-10-08T12:16:26;96702.03;;;3.82;80.99
80382;BME280;69692;55.820;37.490;2023-10-08T12:18:56;96713.72;;;3.76;82.00
80382;BME280;69692;55.820;37.490;2023-10-08T12:21:26;96707.56;;;3.71;81.80
80382;BME280;69692;55.820;37.490;2023-10-08T12:24:00;96702.00;;;3.72;82.27
80382;BME280;69692;55.820;37.490;2023-10-08T12:26:30;96709.13;;;3.62;82.15
80382;BME280;69692;55.820;37.490;2023-10-08T12:28:57;96705.94;;;3.65;83.15
80382;BME280;69692;55.820;37.490;2023-10-08T12:31:23;96706.22;;;3.63;82.35
80382;BME280;69692;55.820;37.490;2023-10-08T12:33:51;96709.06;;;3.51;82.83
80382;BME280;69692;55.820;37.490;2023-10-08T12:36:23;96712.78;;;3.55;83.77
80382;BME280;69692;55.820;37.490;2023-10-08T12:38:50;96709.13;;;3.62;83.77
80382;BME280;69692;55.820;37.490;2023-10-08T12:41:26;96707.78;;;3.59;83.11
80382;BME280;69692;55.820;37.490;2023-10-08T12:43:57;96699.50;;;3.50;83.39
80382;BME280;69692;55.820;37.490;2023-10-08T12:46:24;96707.19;;;3.52;84.58
80382;BME280;69692;55.820;37.490;2023-10-08T12:48:52;96706.28;;;5.12;90.76
80382;BME280;69692;55.820;37.490;2023-10-08T12:51:21;96683.16;;;8.40;96.56
80382;BME280;69692;55.820;37.490;2023-10-08T12:53:51;96679.84;;;10.55;99.25
80382;BME280;69692;55.820;37.490;2023-10-08T12:56:26;96688.31;;;9.66;93.28
80382;BME280;69692;55.820;37.490;2023-10-08T12:58:58;96693.00;;;8.44;67.56
80382;BME280;69692;55.820;37.490;2023-10-08T13:01:24;96696.34;;;7.06;69.63
80382;BME280;69692;55.820;37.490;2023-10-08T13:03:55;96700.31;;;5.66;73.14
80382;BME280;69692;55.820;37.490;2023-10-08T13:06:27;96702.53;;;4.98;77.39
80382;BME280;69692;55.820;37.490;2023-10-08T13:08:57;96703.84;;;4.55;78.94
80382;BME280;69692;55.820;37.490;2023-10-08T13:11:25;96695.75;;;4.09;80.29
80382;BME280;69692;55.820;37.490;2023-10-08T13:13:56;96708.75;;;4.00;81.29
80382;BME280;69692;55.820;37.490;2023-10-08T13:16:23;96701.28;;;3.87;82.71
80382;BME280;69692;55.820;37.490;2023-10-08T13:18:50;96711.88;;;3.82;82.21
80382;BME280;69692;55.820;37.490;2023-10-08T13:21:16;96696.91;;;3.66;82.16
80382;BME280;69692;55.820;37.490;2023-10-08T13:23:45;96711.97;;;3.45;82.87
80382;BME280;69692;55.820;37.490;2023-10-08T13:26:12;96716.16;;;3.36;83.91
80382;BME280;69692;55.820;37.490;2023-10-08T13:28:43;96709.75;;;3.32;84.08